Terminal Aerodrome Forecast
Issued by NWS

Home | Current Version | Previous Version | Text Only | Print | Product List | Glossary Off
Versions: 1 2 3 4 5 6 7 8 9 10 11 12 13 14

699
FTUS45 KGGW 192327
TAFSDY
TAF
KSDY 192327Z 2000/2024 00000KT P6SM VCSH OVC030
     FM200400 00000KT 4SM -SN OVC008
     FM200800 00000KT P6SM VCSH OVC025
     FM201500 VRB04KT P6SM BKN045
     FM202200 26008KT P6SM SCT050=

USA.gov is the U.S. government's official web portal to all federal, state and local government web resources and services.